createdAt,value
2019-03-28T17:43:11.405Z,37.45
2019-03-28T17:45:39.380Z,38.58
2019-03-28T17:48:07.405Z,31.00
2019-03-28T17:50:35.429Z,30.65
2019-03-28T17:53:43.456Z,29.72
2019-03-28T17:56:11.684Z,27.60
2019-03-28T17:58:40.019Z,26.50
2019-03-28T18:01:08.568Z,24.77
2019-03-28T18:03:36.820Z,23.85
2019-03-28T18:06:05.065Z,25.05
2019-03-28T18:08:34.326Z,22.82
2019-03-28T18:11:02.559Z,23.07
2019-03-28T18:13:31.399Z,21.17
2019-03-28T18:15:59.961Z,20.70
2019-03-28T18:18:28.271Z,18.50
2019-03-28T18:20:56.565Z,17.82
2019-03-28T18:23:24.957Z,17.37
2019-03-28T18:25:54.415Z,15.90
2019-03-28T18:28:22.683Z,15.60
2019-03-28T18:30:50.942Z,15.08
2019-03-28T18:33:19.253Z,13.75
2019-03-28T18:35:47.502Z,13.38
2019-03-28T18:38:15.803Z,13.20
2019-03-28T18:40:44.031Z,14.25
2019-03-28T18:43:12.255Z,11.80
2019-03-28T18:45:40.503Z,11.43
2019-03-28T18:48:09.326Z,11.38
2019-03-28T18:50:40.911Z,11.65
2019-03-28T18:53:08.114Z,11.43
2019-03-28T18:55:36.335Z,12.55
2019-03-28T18:58:05.630Z,10.03
2019-03-28T19:00:34.330Z,10.20
2019-03-28T19:03:02.628Z,10.32
2019-03-28T19:05:31.016Z,9.48
2019-03-28T19:07:59.297Z,8.65
2019-03-28T19:10:27.627Z,9.33
2019-03-28T19:12:55.895Z,9.13
2019-03-28T19:15:24.229Z,9.55
2019-03-28T19:17:52.465Z,7.78
2019-03-28T19:20:20.673Z,7.87
2019-03-28T19:22:50.294Z,8.88
2019-03-28T19:25:18.720Z,9.03
2019-03-28T19:27:46.963Z,8.95
2019-03-28T19:30:16.986Z,9.03
2019-03-28T19:32:45.244Z,9.23
2019-03-28T19:35:13.699Z,8.13
2019-03-28T19:37:41.945Z,7.00
2019-03-28T19:40:10.642Z,7.20
2019-03-28T19:42:39.228Z,6.62
2019-03-28T19:45:07.645Z,6.80
2019-03-28T19:47:36.101Z,7.17
2019-03-28T19:50:07.181Z,6.45
2019-03-28T19:52:35.530Z,6.58
2019-03-28T19:55:05.372Z,6.55
2019-03-28T19:57:33.681Z,6.22
2019-03-28T20:00:02.038Z,6.60
2019-03-28T20:02:30.278Z,6.55
2019-03-28T20:04:58.740Z,5.70
2019-03-28T20:07:27.235Z,6.10
2019-03-28T20:09:57.302Z,6.85
2019-03-28T20:12:26.378Z,6.35
2019-03-28T20:14:54.713Z,7.08
2019-03-28T20:17:23.003Z,6.05
2019-03-28T20:19:51.250Z,6.72
2019-03-28T20:22:19.721Z,5.78
2019-03-28T20:24:48.040Z,5.80
2019-03-28T20:27:16.255Z,5.42
2019-03-28T20:29:44.667Z,5.85
2019-03-28T20:32:13.502Z,5.35
2019-03-28T20:34:41.736Z,5.87
2019-03-28T20:37:10.047Z,5.22
2019-03-28T20:39:38.479Z,5.58
2019-03-28T20:42:06.813Z,5.60
2019-03-28T20:44:35.075Z,5.65
2019-03-28T20:47:03.301Z,5.00
2019-03-28T20:49:31.569Z,5.70
2019-03-28T20:52:01.087Z,5.00
2019-03-28T20:54:29.460Z,6.10
2019-03-28T20:56:58.032Z,5.70
2019-03-28T20:59:26.357Z,5.35
2019-03-28T21:01:54.766Z,5.78
2019-03-28T21:04:31.155Z,5.15
2019-03-28T21:06:53.090Z,5.53
2019-03-28T21:09:21.558Z,5.70
2019-03-28T21:11:49.828Z,5.25
2019-03-28T21:14:18.100Z,5.95
2019-03-28T21:16:46.948Z,5.22
2019-03-28T21:19:15.229Z,5.12
2019-03-28T21:21:44.637Z,5.47
2019-03-28T21:24:13.124Z,5.58
2019-03-28T21:26:41.408Z,4.67
2019-03-28T21:29:09.669Z,4.87
2019-03-28T21:31:49.297Z,5.33
2019-03-28T21:34:08.044Z,5.10
2019-03-28T21:36:36.569Z,4.33
2019-03-28T21:39:07.149Z,4.95
2019-03-28T21:41:35.846Z,4.95
2019-03-28T21:44:04.113Z,4.67
2019-03-28T21:46:32.903Z,5.03
2019-03-28T21:49:01.398Z,5.45
2019-03-28T21:51:29.662Z,5.50
2019-03-28T21:53:58.286Z,4.95
2019-03-28T21:56:27.257Z,5.22
2019-03-28T21:58:56.211Z,5.33
2019-03-28T22:01:25.062Z,4.85
2019-03-28T22:03:53.355Z,5.80
2019-03-28T22:06:22.990Z,6.10
2019-03-28T22:08:51.495Z,5.70
2019-03-28T22:11:19.743Z,4.90
2019-03-28T22:13:48.173Z,4.58
2019-03-28T22:16:16.486Z,4.95
2019-03-28T22:18:44.778Z,4.30
2019-03-28T22:21:13.082Z,4.87
2019-03-28T22:23:41.461Z,4.55
2019-03-28T22:26:09.721Z,4.80
2019-03-28T22:28:38.185Z,5.40
2019-03-28T22:31:07.060Z,4.58
2019-03-28T22:33:35.315Z,4.87
2019-03-28T22:36:04.606Z,4.85
2019-03-28T22:38:32.959Z,5.12
2019-03-28T22:41:01.243Z,4.78
2019-03-28T22:43:29.857Z,5.15
2019-03-28T22:45:58.148Z,4.80
2019-03-28T22:48:26.405Z,4.95
2019-03-28T22:50:54.676Z,4.67
2019-03-28T22:53:22.942Z,4.65
2019-03-28T22:55:53.193Z,4.40
2019-03-28T22:58:21.158Z,5.25
2019-03-28T23:00:52.859Z,4.53
2019-03-28T23:03:21.169Z,4.90
2019-03-28T23:05:49.482Z,4.40
2019-03-28T23:08:17.759Z,4.65
2019-03-28T23:10:46.009Z,4.45
2019-03-28T23:13:14.688Z,4.90
2019-03-28T23:15:42.981Z,4.08
2019-03-28T23:18:11.253Z,4.80
2019-03-28T23:20:39.509Z,4.28
2019-03-28T23:23:07.763Z,4.75
2019-03-28T23:25:36.907Z,4.58
2019-03-28T23:28:05.574Z,4.33
2019-03-28T23:30:33.839Z,4.80
2019-03-28T23:33:02.103Z,4.62
2019-03-28T23:35:30.373Z,4.62
2019-03-28T23:37:58.618Z,4.08
2019-03-28T23:40:26.888Z,4.22
2019-03-28T23:42:55.096Z,4.75
2019-03-28T23:45:23.367Z,4.45
2019-03-28T23:47:51.621Z,4.60
2019-03-28T23:50:19.925Z,4.45
2019-03-28T23:52:48.262Z,4.15
2019-03-28T23:55:16.550Z,4.70
2019-03-28T23:57:44.795Z,4.37
